Time;durP1;ratioP1;P1;durP2;ratioP2;P2;SDS_P1;SDS_P2;PMS_P1;PMS_P2;Temp;Humidity;BMP_temperature;BMP_pressure;BME280_temperature;BME280_humidity;BME280_pressure;Samples;Min_cycle;Max_cycle;Signal;HPM_P1;HPM_P2
2021/05/07 00:02:06;;;;;;;6.55;4.60;;;10.80;78.40;;;;;;5071916;28;20025;-68
2021/05/07 00:04:31;;;;;;;6.15;4.40;;;10.80;78.50;;;;;;5058963;28;20132;-68
2021/05/07 00:06:57;;;;;;;6.65;4.47;;;10.80;78.60;;;;;;5072739;28;20016;-68
2021/05/07 00:09:23;;;;;;;7.10;5.18;;;10.80;78.70;;;;;;5066293;28;20028;-68
2021/05/07 00:11:48;;;;;;;6.05;4.43;;;10.80;78.80;;;;;;5053296;28;20420;-68
2021/05/07 00:14:14;;;;;;;6.47;4.18;;;10.80;79.00;;;;;;5072572;28;20405;-68
2021/05/07 00:16:39;;;;;;;6.40;4.28;;;10.70;79.20;;;;;;5072361;28;20460;-68
2021/05/07 00:19:06;;;;;;;9.05;5.20;;;10.70;79.30;;;;;;5052235;28;20111;-68
2021/05/07 00:21:33;;;;;;;8.43;4.38;;;10.70;79.50;;;;;;5072340;28;20021;-69
2021/05/07 00:23:58;;;;;;;6.40;4.60;;;10.70;79.70;;;;;;5069135;28;20468;-69
2021/05/07 00:26:24;;;;;;;7.30;4.40;;;10.70;79.80;;;;;;5072247;28;20016;-68
2021/05/07 00:28:49;;;;;;;7.18;4.47;;;10.60;79.80;;;;;;5070041;28;20097;-69
2021/05/07 00:31:17;;;;;;;7.72;5.22;;;10.60;79.90;;;;;;5071916;28;20017;-69
2021/05/07 00:33:42;;;;;;;8.07;4.72;;;10.60;80.00;;;;;;5070134;28;20127;-69
2021/05/07 00:36:07;;;;;;;6.13;4.60;;;10.60;80.00;;;;;;5071748;28;20465;-69
2021/05/07 00:38:33;;;;;;;7.93;4.68;;;10.60;80.10;;;;;;5071193;28;20024;-69
2021/05/07 00:40:59;;;;;;;5.82;4.57;;;10.60;80.10;;;;;;5070832;28;20020;-69
2021/05/07 00:43:25;;;;;;;9.10;4.95;;;10.60;80.20;;;;;;5072854;28;20032;-69
2021/05/07 00:45:51;;;;;;;6.78;4.88;;;10.50;80.20;;;;;;5071849;28;20036;-69
2021/05/07 00:48:18;;;;;;;8.63;5.45;;;10.50;80.40;;;;;;5074244;28;20032;-68
2021/05/07 00:50:45;;;;;;;7.40;5.03;;;10.50;80.40;;;;;;5092189;28;20028;-68
2021/05/07 00:53:10;;;;;;;8.13;5.10;;;10.50;80.50;;;;;;5085941;28;20035;-68
2021/05/07 00:55:38;;;;;;;7.10;4.90;;;10.50;80.70;;;;;;5091846;28;20032;-69
2021/05/07 00:58:04;;;;;;;8.43;5.07;;;10.50;80.90;;;;;;5085143;28;20199;-69
2021/05/07 01:00:31;;;;;;;8.05;5.03;;;10.40;81.00;;;;;;5091312;28;20565;-69
2021/05/07 01:02:58;;;;;;;8.15;5.18;;;10.40;81.20;;;;;;5084193;28;20037;-67
2021/05/07 01:05:24;;;;;;;8.10;5.03;;;10.30;81.40;;;;;;5050506;28;20447;-68
2021/05/07 01:07:50;;;;;;;8.60;4.97;;;10.40;81.70;;;;;;5052163;28;20056;-69
2021/05/07 01:10:17;;;;;;;8.00;5.40;;;10.40;81.80;;;;;;5071353;28;20029;-68
2021/05/07 01:12:43;;;;;;;7.65;5.45;;;10.40;82.00;;;;;;5051562;28;20154;-69
2021/05/07 01:15:12;;;;;;;7.35;4.45;;;10.30;82.00;;;;;;5079909;28;20499;-68
2021/05/07 01:17:47;;;;;;;8.32;5.22;;;10.40;82.20;;;;;;5070785;28;20025;-69
2021/05/07 01:20:16;;;;;;;9.70;5.15;;;10.40;82.30;;;;;;5091300;28;20032;-68
2021/05/07 01:22:45;;;;;;;7.90;5.43;;;10.40;82.20;;;;;;5079028;28;20025;-69
2021/05/07 01:25:12;;;;;;;7.95;5.10;;;10.40;82.30;;;;;;5072065;28;20112;-69
2021/05/07 01:27:40;;;;;;;7.03;5.60;;;10.40;82.40;;;;;;5070614;28;20032;-69
2021/05/07 01:30:10;;;;;;;7.22;4.60;;;10.40;82.40;;;;;;5089271;28;20032;-68
2021/05/07 01:32:37;;;;;;;7.10;5.40;;;10.40;82.40;;;;;;5085064;28;20028;-68
2021/05/07 01:35:06;;;;;;;6.60;5.13;;;10.40;82.50;;;;;;5069050;28;20107;-68
2021/05/07 01:37:32;;;;;;;8.30;5.45;;;10.40;82.60;;;;;;5061050;28;20025;-70
2021/05/07 01:39:57;;;;;;;7.75;5.32;;;10.40;82.70;;;;;;5053330;28;20442;-69
2021/05/07 01:42:23;;;;;;;7.88;5.32;;;10.30;82.70;;;;;;5084058;28;20028;-69
2021/05/07 01:44:48;;;;;;;7.03;5.20;;;10.40;82.90;;;;;;5089565;28;20350;-69
2021/05/07 01:47:14;;;;;;;7.03;5.18;;;10.40;82.90;;;;;;5083197;28;20038;-69
2021/05/07 01:49:39;;;;;;;7.03;4.93;;;10.40;83.00;;;;;;5091569;28;20019;-70
2021/05/07 01:52:05;;;;;;;6.68;5.20;;;10.30;83.00;;;;;;5082344;28;20054;-69
2021/05/07 01:54:30;;;;;;;7.40;5.07;;;10.30;83.10;;;;;;5095224;28;20070;-69
2021/05/07 01:56:56;;;;;;;7.15;4.53;;;10.30;83.10;;;;;;5059286;28;20037;-69
2021/05/07 01:59:21;;;;;;;7.65;4.95;;;10.30;83.10;;;;;;5074185;28;20019;-69
2021/05/07 02:01:47;;;;;;;8.88;5.45;;;10.30;83.30;;;;;;5073318;28;20028;-70
2021/05/07 02:04:12;;;;;;;6.65;4.90;;;10.20;83.20;;;;;;5056122;28;20129;-69
2021/05/07 02:06:38;;;;;;;5.93;4.80;;;10.30;83.20;;;;;;5082691;28;20024;-69
2021/05/07 02:09:04;;;;;;;6.70;4.88;;;10.20;83.10;;;;;;5093886;28;20502;-69
2021/05/07 02:11:29;;;;;;;8.10;4.82;;;10.30;83.10;;;;;;5072559;28;20028;-69
2021/05/07 02:13:55;;;;;;;7.47;4.78;;;10.20;83.20;;;;;;5074539;28;20021;-69
2021/05/07 02:16:20;;;;;;;7.90;5.68;;;10.20;83.30;;;;;;5072083;28;20456;-69
2021/05/07 02:18:46;;;;;;;6.68;5.40;;;10.20;83.40;;;;;;5064274;28;20036;-70
2021/05/07 02:21:11;;;;;;;7.60;4.88;;;10.30;83.60;;;;;;5062041;28;20031;-71
2021/05/07 02:23:37;;;;;;;6.82;4.97;;;10.20;83.70;;;;;;5056453;28;20017;-70
2021/05/07 02:26:03;;;;;;;6.90;4.75;;;10.20;83.80;;;;;;5061361;28;20044;-70
2021/05/07 02:28:28;;;;;;;6.35;5.13;;;10.20;83.90;;;;;;5094683;28;20059;-69
2021/05/07 02:30:54;;;;;;;8.35;5.28;;;10.20;84.10;;;;;;5073010;28;20047;-70
2021/05/07 02:33:19;;;;;;;6.75;5.28;;;10.20;84.20;;;;;;5054322;28;20021;-71
2021/05/07 02:35:45;;;;;;;6.95;4.90;;;10.20;84.40;;;;;;5058869;28;20597;-69
2021/05/07 02:38:10;;;;;;;7.38;4.93;;;10.20;84.40;;;;;;5074192;28;20452;-69
2021/05/07 02:40:36;;;;;;;7.05;4.97;;;10.20;84.50;;;;;;5081938;28;20032;-69
2021/05/07 02:43:01;;;;;;;7.32;4.85;;;10.20;84.60;;;;;;5074028;28;20443;-69
2021/05/07 02:45:27;;;;;;;8.68;5.50;;;10.20;84.80;;;;;;5073021;28;20052;-71
2021/05/07 02:47:52;;;;;;;7.35;5.22;;;10.20;84.80;;;;;;5073466;28;20381;-70
2021/05/07 02:50:18;;;;;;;7.95;5.28;;;10.20;85.00;;;;;;5072889;28;20449;-70
2021/05/07 02:52:44;;;;;;;7.22;5.38;;;10.20;85.10;;;;;;5071871;28;20066;-69
2021/05/07 02:55:10;;;;;;;7.75;5.18;;;10.20;85.10;;;;;;5073064;28;20047;-69
2021/05/07 02:57:36;;;;;;;7.07;5.00;;;10.20;85.00;;;;;;5072396;28;20032;-68
2021/05/07 03:00:03;;;;;;;8.13;5.88;;;10.20;85.00;;;;;;5064149;28;20052;-69
2021/05/07 03:02:29;;;;;;;7.22;5.05;;;10.10;85.00;;;;;;5038043;28;20061;-68
2021/05/07 03:04:54;;;;;;;7.97;5.53;;;10.20;85.20;;;;;;5037191;28;20060;-69
2021/05/07 03:07:20;;;;;;;9.68;6.00;;;10.20;85.20;;;;;;5043930;28;20028;-69
2021/05/07 03:09:45;;;;;;;7.97;5.65;;;10.20;85.30;;;;;;5058397;28;20062;-69
2021/05/07 03:12:11;;;;;;;7.20;5.35;;;10.10;85.30;;;;;;5052033;28;20025;-69
2021/05/07 03:14:36;;;;;;;8.48;5.70;;;10.10;85.30;;;;;;5052663;28;20370;-69
2021/05/07 03:17:02;;;;;;;8.85;5.82;;;10.10;85.40;;;;;;5040553;28;20033;-69
2021/05/07 03:19:28;;;;;;;6.68;5.30;;;10.20;85.50;;;;;;5048069;28;20168;-69
2021/05/07 03:21:53;;;;;;;9.27;6.03;;;10.20;85.40;;;;;;5041496;28;20029;-68
2021/05/07 03:24:19;;;;;;;8.07;5.65;;;10.10;85.20;;;;;;5027020;28;20021;-69
2021/05/07 03:26:44;;;;;;;7.53;5.28;;;10.20;85.20;;;;;;5042083;28;20524;-69
2021/05/07 03:29:10;;;;;;;7.32;5.18;;;10.20;85.30;;;;;;5052771;28;20066;-68
2021/05/07 03:31:35;;;;;;;6.57;4.82;;;10.20;85.20;;;;;;5041677;28;20017;-70
2021/05/07 03:34:03;;;;;;;8.63;5.82;;;10.20;85.80;;;;;;5058622;28;20039;-69
2021/05/07 03:36:28;;;;;;;7.97;5.88;;;10.20;85.30;;;;;;5058172;28;20566;-69
2021/05/07 03:38:55;;;;;;;8.85;5.55;;;10.20;85.20;;;;;;5060592;28;20029;-69
2021/05/07 03:41:21;;;;;;;7.72;5.80;;;10.30;85.00;;;;;;5065522;28;20484;-69
2021/05/07 03:43:46;;;;;;;7.75;5.45;;;10.30;84.80;;;;;;5062336;28;20053;-69
2021/05/07 03:46:12;;;;;;;8.48;5.90;;;10.30;84.70;;;;;;5051545;28;20119;-68
2021/05/07 03:48:37;;;;;;;7.43;5.32;;;10.30;84.50;;;;;;5040776;28;20040;-68
2021/05/07 03:51:03;;;;;;;6.10;4.70;;;10.30;84.20;;;;;;5039832;28;20028;-69
2021/05/07 03:53:28;;;;;;;7.63;5.40;;;10.30;83.90;;;;;;5061780;28;20025;-69
2021/05/07 03:55:56;;;;;;;9.23;6.05;;;10.30;83.70;;;;;;5053623;28;20033;-69
2021/05/07 03:58:22;;;;;;;8.93;4.88;;;10.30;83.60;;;;;;5063677;28;20029;-69
2021/05/07 04:00:48;;;;;;;10.18;6.00;;;10.40;83.40;;;;;;5063774;28;20539;-69
2021/05/07 04:03:13;;;;;;;8.27;5.53;;;10.30;83.10;;;;;;5063275;28;20021;-69
2021/05/07 04:05:39;;;;;;;8.20;5.93;;;10.40;83.00;;;;;;5070799;28;20063;-69
2021/05/07 04:10:32;;;;;;;6.85;5.53;;;10.40;82.80;;;;;;5071506;28;20190;-69
2021/05/07 04:15:23;;;;;;;10.00;6.18;;;10.50;82.90;;;;;;5071319;28;20123;-69
2021/05/07 04:17:49;;;;;;;7.47;5.80;;;10.50;82.80;;;;;;5065587;28;20025;-69
2021/05/07 04:20:14;;;;;;;7.32;5.47;;;10.50;82.70;;;;;;5072385;28;20027;-73
2021/05/07 04:22:40;;;;;;;8.05;5.63;;;10.60;82.60;;;;;;5060205;28;20163;-74
2021/05/07 04:25:07;;;;;;;9.82;5.72;;;10.60;82.80;;;;;;5089434;28;20048;-72
2021/05/07 04:27:33;;;;;;;8.88;6.03;;;10.60;83.00;;;;;;5076692;28;20029;-72
2021/05/07 04:29:58;;;;;;;7.05;5.53;;;10.60;83.10;;;;;;5052187;28;20028;-72
2021/05/07 04:32:24;;;;;;;8.68;5.57;;;10.60;83.20;;;;;;5059860;28;20034;-72
2021/05/07 04:34:49;;;;;;;8.13;5.43;;;10.60;83.10;;;;;;5053455;28;20021;-71
2021/05/07 04:37:15;;;;;;;7.95;5.90;;;10.60;83.20;;;;;;5064777;28;20032;-70
2021/05/07 04:39:40;;;;;;;7.30;5.32;;;10.60;83.20;;;;;;5072112;28;20381;-71
2021/05/07 04:42:06;;;;;;;7.70;5.65;;;10.70;83.30;;;;;;5070030;28;20027;-71
2021/05/07 04:44:32;;;;;;;10.93;5.97;;;10.70;83.30;;;;;;5071928;28;20036;-73
2021/05/07 04:46:59;;;;;;;7.38;5.70;;;10.70;83.30;;;;;;5069414;28;20028;-72
2021/05/07 04:49:25;;;;;;;15.55;6.18;;;10.70;83.40;;;;;;5072063;28;20434;-70
2021/05/07 04:51:51;;;;;;;10.23;4.97;;;10.80;83.40;;;;;;5059834;28;20029;-71
2021/05/07 04:54:16;;;;;;;10.38;5.68;;;10.80;83.20;;;;;;5071902;28;20071;-72
2021/05/07 04:56:42;;;;;;;9.23;6.00;;;10.80;83.10;;;;;;5071793;28;20119;-72
2021/05/07 04:59:07;;;;;;;9.05;5.10;;;10.90;82.70;;;;;;5067968;28;20021;-73
2021/05/07 05:01:33;;;;;;;6.60;5.40;;;10.90;82.30;;;;;;5076449;28;20040;-72
2021/05/07 05:03:58;;;;;;;9.70;5.68;;;11.00;81.90;;;;;;5071248;28;20012;-72
2021/05/07 05:06:24;;;;;;;9.55;5.47;;;10.90;81.80;;;;;;5076718;28;20115;-72
2021/05/07 05:08:49;;;;;;;9.48;5.50;;;10.90;81.80;;;;;;5072014;28;20362;-70
2021/05/07 05:11:14;;;;;;;9.13;5.07;;;10.90;81.30;;;;;;5065322;28;20064;-68
2021/05/07 05:13:40;;;;;;;10.40;5.13;;;10.90;81.20;;;;;;5068183;28;20539;-71
2021/05/07 05:16:06;;;;;;;7.10;4.47;;;10.90;80.90;;;;;;5072758;28;20048;-70
2021/05/07 05:18:34;;;;;;;7.00;4.30;;;10.80;79.80;;;;;;5075399;28;20021;-72
2021/05/07 05:21:05;;;;;;;6.07;4.15;;;10.70;79.30;;;;;;5055787;28;20043;-71
2021/05/07 05:23:31;;;;;;;7.03;3.85;;;10.60;78.80;;;;;;5076521;28;20496;-72
2021/05/07 05:25:57;;;;;;;5.03;3.85;;;10.60;78.10;;;;;;5072528;28;20028;-73
2021/05/07 05:28:24;;;;;;;5.65;3.50;;;10.50;77.40;;;;;;5052696;28;20031;-72
2021/05/07 05:30:49;;;;;;;5.95;3.55;;;10.40;76.80;;;;;;5057477;28;20024;-71
2021/05/07 05:33:15;;;;;;;6.03;3.55;;;10.30;76.70;;;;;;5074682;28;20039;-72
2021/05/07 05:35:41;;;;;;;5.28;3.35;;;10.30;76.90;;;;;;5075187;28;20209;-72
2021/05/07 05:38:07;;;;;;;5.97;3.38;;;10.30;77.00;;;;;;5087027;28;20029;-70
2021/05/07 05:40:33;;;;;;;6.72;2.95;;;10.20;76.40;;;;;;5079905;28;20104;-72
2021/05/07 05:42:58;;;;;;;4.28;2.67;;;10.10;77.10;;;;;;5081182;28;20055;-72
2021/05/07 05:45:25;;;;;;;5.18;2.70;;;10.00;77.10;;;;;;5082093;28;20025;-72
2021/05/07 05:48:12;;;;;;;3.88;2.60;;;9.80;77.50;;;;;;5081568;28;20040;-72
2021/05/07 05:50:40;;;;;;;6.28;2.90;;;9.70;78.10;;;;;;5081688;28;20154;-72
2021/05/07 05:53:06;;;;;;;6.05;2.92;;;9.70;78.10;;;;;;5070951;28;20043;-71
2021/05/07 05:55:32;;;;;;;3.83;2.63;;;9.60;78.20;;;;;;5060079;28;20037;-72
2021/05/07 05:57:58;;;;;;;5.65;2.92;;;9.50;78.30;;;;;;5070874;28;20044;-72
2021/05/07 06:00:24;;;;;;;7.57;3.40;;;9.50;78.50;;;;;;5080272;28;20048;-72
2021/05/07 06:02:50;;;;;;;6.65;3.42;;;9.60;78.80;;;;;;5073484;28;20727;-73
2021/05/07 06:05:17;;;;;;;12.88;6.18;;;9.50;79.10;;;;;;5075861;28;20104;-73
2021/05/07 06:07:42;;;;;;;7.30;4.03;;;9.50;79.10;;;;;;5080738;28;20088;-72
2021/05/07 06:10:11;;;;;;;6.38;3.00;;;9.50;79.80;;;;;;5075067;28;20117;-73
2021/05/07 06:12:37;;;;;;;7.63;3.03;;;9.60;79.50;;;;;;5073796;28;20388;-72
2021/05/07 06:15:04;;;;;;;7.35;3.20;;;9.60;79.50;;;;;;5074575;28;20020;-72
2021/05/07 06:17:29;;;;;;;6.65;2.88;;;9.70;79.20;;;;;;5081007;28;20032;-72
2021/05/07 06:19:57;;;;;;;6.55;3.15;;;9.80;79.40;;;;;;5074521;28;20027;-72
2021/05/07 06:22:23;;;;;;;5.15;2.90;;;9.80;79.50;;;;;;5062329;28;20028;-72
2021/05/07 06:24:48;;;;;;;6.65;2.75;;;9.80;79.10;;;;;;5054736;28;20108;-73
2021/05/07 06:27:14;;;;;;;7.35;3.05;;;9.80;79.00;;;;;;5062848;28;20078;-72
2021/05/07 06:29:39;;;;;;;3.90;2.30;;;10.00;79.20;;;;;;5074275;28;20021;-72
2021/05/07 06:32:05;;;;;;;5.72;2.42;;;10.00;79.10;;;;;;5078386;28;20037;-72
2021/05/07 06:34:30;;;;;;;7.07;2.63;;;10.00;78.80;;;;;;5074219;28;20103;-72
2021/05/07 06:36:56;;;;;;;5.68;2.50;;;10.00;78.00;;;;;;5069222;28;20036;-72
2021/05/07 06:39:21;;;;;;;4.47;2.70;;;10.00;77.80;;;;;;5055695;28;20025;-70
2021/05/07 06:41:47;;;;;;;7.90;2.65;;;9.90;77.60;;;;;;5077809;28;20029;-71
2021/05/07 06:44:12;;;;;;;8.35;2.75;;;9.80;78.00;;;;;;5074063;28;20112;-70
2021/05/07 06:46:38;;;;;;;4.82;2.47;;;9.80;78.40;;;;;;5071982;28;20024;-70
2021/05/07 06:49:04;;;;;;;6.78;2.72;;;9.90;78.50;;;;;;5063461;28;20110;-70
2021/05/07 06:51:29;;;;;;;5.75;2.40;;;9.90;79.40;;;;;;5044029;28;20024;-71
2021/05/07 06:53:55;;;;;;;6.15;2.60;;;9.80;78.90;;;;;;5070149;28;20094;-71
2021/05/07 06:56:21;;;;;;;4.45;2.42;;;9.70;79.10;;;;;;5067515;28;20033;-70
2021/05/07 06:58:48;;;;;;;5.72;2.28;;;9.60;79.30;;;;;;5055070;28;20056;-70
2021/05/07 07:01:13;;;;;;;4.45;2.30;;;9.60;79.50;;;;;;5071456;28;20057;-70
2021/05/07 07:03:39;;;;;;;6.28;2.38;;;9.50;79.50;;;;;;5073165;28;20382;-70
2021/05/07 07:06:04;;;;;;;4.88;2.50;;;9.30;80.00;;;;;;5070826;28;20042;-70
2021/05/07 07:08:30;;;;;;;6.47;2.55;;;9.30;80.70;;;;;;5073537;28;20083;-69
2021/05/07 07:10:58;;;;;;;7.28;2.30;;;9.20;81.20;;;;;;5073922;28;20037;-69
2021/05/07 07:13:24;;;;;;;7.80;2.33;;;9.20;82.80;;;;;;5093519;28;20031;-69
2021/05/07 07:15:49;;;;;;;5.32;2.22;;;9.10;83.50;;;;;;5077440;28;20037;-69
2021/05/07 07:18:19;;;;;;;5.80;2.22;;;9.00;84.40;;;;;;5082648;28;20032;-69
2021/05/07 07:20:44;;;;;;;9.93;2.53;;;9.00;84.70;;;;;;5087968;28;20024;-69
2021/05/07 07:23:10;;;;;;;6.15;2.50;;;9.00;85.40;;;;;;5072828;28;20047;-68
2021/05/07 07:25:35;;;;;;;5.20;3.03;;;8.90;86.00;;;;;;5059267;28;20114;-69
2021/05/07 07:28:04;;;;;;;5.53;2.08;;;8.90;87.50;;;;;;5054004;28;20369;-67
2021/05/07 07:30:29;;;;;;;5.45;2.13;;;8.80;87.60;;;;;;5053894;28;20405;-66
2021/05/07 07:32:55;;;;;;;5.07;2.20;;;8.70;87.10;;;;;;5072137;28;20039;-66
2021/05/07 07:35:21;;;;;;;7.35;2.42;;;8.60;87.30;;;;;;5072661;28;20492;-66
2021/05/07 07:37:47;;;;;;;5.45;2.53;;;8.60;87.80;;;;;;5065823;28;20103;-67
2021/05/07 07:40:13;;;;;;;5.18;1.95;;;8.50;89.50;;;;;;5042912;28;20115;-68
2021/05/07 07:42:40;;;;;;;6.05;2.83;;;8.40;89.70;;;;;;5070334;28;20384;-68
2021/05/07 07:45:06;;;;;;;6.20;2.45;;;8.30;90.10;;;;;;5060304;28;20036;-68
2021/05/07 07:47:32;;;;;;;8.80;2.38;;;8.20;90.30;;;;;;5068808;28;20063;-67
2021/05/07 07:49:57;;;;;;;6.60;2.67;;;8.10;90.40;;;;;;5072167;28;20060;-67
2021/05/07 07:52:23;;;;;;;7.72;2.63;;;7.90;91.20;;;;;;5070910;28;20039;-66
2021/05/07 07:54:48;;;;;;;6.22;2.72;;;7.80;92.40;;;;;;5072073;28;20027;-66
2021/05/07 07:57:14;;;;;;;4.35;2.50;;;7.70;92.50;;;;;;5060475;28;20232;-66
2021/05/07 07:59:39;;;;;;;5.85;2.70;;;7.60;92.50;;;;;;5073288;28;20046;-67
2021/05/07 08:02:05;;;;;;;5.13;3.55;;;7.50;93.60;;;;;;5073732;28;20115;-65
2021/05/07 08:04:30;;;;;;;5.10;3.25;;;7.40;93.70;;;;;;5071035;28;20024;-67
2021/05/07 08:06:56;;;;;;;6.47;3.10;;;7.30;94.20;;;;;;5070374;28;20020;-67
2021/05/07 08:09:21;;;;;;;6.57;4.00;;;7.40;94.00;;;;;;5071833;28;20523;-67
2021/05/07 08:11:47;;;;;;;8.40;3.95;;;7.30;94.40;;;;;;5067891;28;20123;-67
2021/05/07 08:14:12;;;;;;;8.00;3.70;;;7.20;94.40;;;;;;5071926;28;20035;-67
2021/05/07 08:16:38;;;;;;;7.18;3.10;;;7.20;94.80;;;;;;5052472;28;20171;-68
2021/05/07 08:19:03;;;;;;;6.63;3.00;;;7.20;94.90;;;;;;5079201;28;20027;-67
2021/05/07 08:21:29;;;;;;;11.50;5.10;;;7.10;95.10;;;;;;5069146;28;20027;-68
2021/05/07 08:23:58;;;;;;;9.63;4.05;;;7.20;95.50;;;;;;5067900;28;20025;-67
2021/05/07 08:26:23;;;;;;;7.40;3.20;;;7.10;95.40;;;;;;5069773;28;20029;-67
2021/05/07 08:28:49;;;;;;;5.32;2.70;;;7.10;95.40;;;;;;5070764;28;20035;-68
2021/05/07 08:31:14;;;;;;;4.65;2.75;;;7.10;95.50;;;;;;5052552;28;20432;-69
2021/05/07 08:33:40;;;;;;;7.25;2.80;;;7.00;95.50;;;;;;5064284;28;20473;-65
2021/05/07 08:36:06;;;;;;;8.40;3.65;;;7.10;95.60;;;;;;5066880;28;20037;-67
2021/05/07 08:38:31;;;;;;;7.90;3.50;;;7.10;95.60;;;;;;5068396;28;20060;-66
2021/05/07 08:41:04;;;;;;;5.07;3.30;;;7.10;95.80;;;;;;5063352;28;20032;-67
2021/05/07 08:43:30;;;;;;;6.68;2.38;;;7.10;95.90;;;;;;5050649;28;20029;-67
2021/05/07 08:45:56;;;;;;;7.10;3.08;;;7.10;95.70;;;;;;5063758;28;20025;-67
2021/05/07 08:48:24;;;;;;;5.45;2.70;;;7.10;95.90;;;;;;5068492;28;20032;-66
2021/05/07 08:50:52;;;;;;;5.40;2.20;;;7.10;95.80;;;;;;5070244;28;20034;-67
2021/05/07 08:53:18;;;;;;;6.78;2.50;;;7.00;95.60;;;;;;5069668;28;20378;-66
2021/05/07 08:55:45;;;;;;;5.22;2.30;;;7.10;95.50;;;;;;5069797;28;20040;-64
2021/05/07 08:58:12;;;;;;;4.00;2.47;;;7.00;95.50;;;;;;5071543;28;20127;-65
2021/05/07 09:00:37;;;;;;;3.63;2.38;;;7.00;96.00;;;;;;5065152;28;20098;-66
2021/05/07 09:03:05;;;;;;;4.72;2.75;;;7.00;96.20;;;;;;5051129;28;20025;-65
2021/05/07 09:05:32;;;;;;;4.57;2.50;;;6.90;96.20;;;;;;5058917;28;20040;-65
2021/05/07 09:07:57;;;;;;;3.97;2.38;;;6.90;96.20;;;;;;5070719;28;20079;-66
2021/05/07 09:10:43;;;;;;;3.95;2.30;;;6.90;96.10;;;;;;5071029;28;20024;-65
2021/05/07 09:13:11;;;;;;;5.63;2.25;;;6.90;96.10;;;;;;5070722;28;20078;-66
2021/05/07 09:15:43;;;;;;;4.85;2.22;;;7.00;96.30;;;;;;5061737;28;20041;-65
2021/05/07 09:18:10;;;;;;;4.43;2.05;;;7.00;96.30;;;;;;5087619;28;20115;-65
2021/05/07 09:20:41;;;;;;;4.13;2.15;;;7.00;96.20;;;;;;5070419;28;20452;-66
2021/05/07 09:23:14;;;;;;;4.60;2.00;;;7.00;96.20;;;;;;5033625;28;20033;-66
2021/05/07 09:25:52;;;;;;;5.65;1.90;;;7.00;96.20;;;;;;5063538;28;20039;-66
2021/05/07 09:28:18;;;;;;;3.38;2.22;;;7.00;96.00;;;;;;5071026;28;20024;-66
2021/05/07 09:30:45;;;;;;;4.25;2.22;;;7.10;96.00;;;;;;5066912;28;20365;-66
2021/05/07 09:33:12;;;;;;;4.78;2.58;;;7.10;95.90;;;;;;5070676;28;20044;-66
2021/05/07 09:35:39;;;;;;;3.15;1.90;;;7.00;95.60;;;;;;5059047;28;20033;-66
2021/05/07 09:38:07;;;;;;;4.78;2.22;;;6.90;95.40;;;;;;5070924;28;20119;-66
2021/05/07 09:40:35;;;;;;;3.63;2.17;;;6.70;95.50;;;;;;5069216;28;20024;-66
2021/05/07 09:43:10;;;;;;;3.40;2.30;;;6.60;95.60;;;;;;5070126;28;20033;-66
2021/05/07 09:45:36;;;;;;;;;;;6.60;95.60;;;;;;5074099;28;20024;-64
2021/05/07 09:48:02;;;;;;;3.85;2.38;;;6.50;95.30;;;;;;5075608;28;20004;-64
2021/05/07 09:50:38;;;;;;;4.90;2.67;;;6.50;95.30;;;;;;5059694;28;20058;-65
2021/05/07 09:53:21;;;;;;;3.42;2.22;;;6.40;95.70;;;;;;5056902;28;20384;-66
2021/05/07 09:56:03;;;;;;;3.83;2.20;;;6.50;95.80;;;;;;5068060;28;20043;-65
2021/05/07 09:58:29;;;;;;;4.93;2.60;;;6.60;95.80;;;;;;5059417;28;20025;-66
2021/05/07 10:00:56;;;;;;;4.13;2.20;;;6.70;96.00;;;;;;5069533;28;20044;-66
2021/05/07 10:03:22;;;;;;;3.25;2.08;;;6.80;95.90;;;;;;5052198;28;20025;-65
2021/05/07 10:05:48;;;;;;;3.10;2.35;;;6.90;96.00;;;;;;5083633;28;20135;-65
2021/05/07 10:08:13;;;;;;;3.65;2.10;;;6.90;95.90;;;;;;5051099;28;20483;-67
2021/05/07 10:10:43;;;;;;;3.08;2.00;;;7.00;95.90;;;;;;5069023;28;20024;-66
2021/05/07 10:13:12;;;;;;;5.15;2.78;;;7.20;96.00;;;;;;5071105;28;20028;-66
2021/05/07 10:15:40;;;;;;;4.22;2.78;;;7.30;95.90;;;;;;5074663;28;20064;-67
2021/05/07 10:18:07;;;;;;;5.10;3.17;;;7.40;95.90;;;;;;5086766;28;20058;-66
2021/05/07 10:20:39;;;;;;;4.22;3.17;;;7.50;95.70;;;;;;5087094;28;20031;-67
2021/05/07 10:23:19;;;;;;;3.75;2.78;;;7.60;95.70;;;;;;5053877;28;20036;-67
2021/05/07 10:25:55;;;;;;;4.57;2.97;;;7.60;95.60;;;;;;5061198;28;20051;-66
2021/05/07 10:28:21;;;;;;;5.22;3.28;;;7.80;95.70;;;;;;5081299;28;20114;-67
2021/05/07 10:30:46;;;;;;;6.10;3.58;;;7.80;95.70;;;;;;5055514;28;20560;-67
2021/05/07 10:33:17;;;;;;;4.00;2.88;;;7.90;95.70;;;;;;5070020;28;20094;-67
2021/05/07 10:35:47;;;;;;;5.07;2.53;;;8.00;95.70;;;;;;5056841;28;20044;-67
2021/05/07 10:38:16;;;;;;;4.93;2.80;;;8.10;95.80;;;;;;5056317;28;20043;-67
2021/05/07 10:40:43;;;;;;;3.75;2.75;;;8.20;95.90;;;;;;5071708;28;20099;-67
2021/05/07 10:43:09;;;;;;;3.40;2.70;;;8.40;95.90;;;;;;5077749;28;20036;-67
2021/05/07 10:45:45;;;;;;;3.17;2.08;;;8.60;96.00;;;;;;5075291;28;20025;-67
2021/05/07 10:48:22;;;;;;;3.50;1.98;;;8.80;95.80;;;;;;5069787;28;20454;-67
2021/05/07 10:50:51;;;;;;;3.08;1.83;;;8.90;95.70;;;;;;5081283;28;20401;-66
2021/05/07 10:53:31;;;;;;;2.40;1.70;;;9.10;95.80;;;;;;5075866;28;20117;-67
2021/05/07 10:55:58;;;;;;;3.90;1.75;;;9.30;95.60;;;;;;5078155;28;20514;-66
2021/05/07 10:58:35;;;;;;;3.65;2.00;;;9.50;95.30;;;;;;5054071;28;20025;-67
2021/05/07 11:01:15;;;;;;;3.28;2.33;;;9.60;95.60;;;;;;5070417;28;20412;-67
2021/05/07 11:03:40;;;;;;;3.97;2.03;;;9.80;95.30;;;;;;5072948;28;20040;-70
2021/05/07 11:06:06;;;;;;;3.28;2.45;;;9.90;94.90;;;;;;5070983;28;20032;-67
2021/05/07 11:08:32;;;;;;;4.35;2.33;;;10.00;94.50;;;;;;5075453;28;20147;-69
2021/05/07 11:10:58;;;;;;;4.00;2.03;;;10.20;94.50;;;;;;5071242;28;20035;-68
2021/05/07 11:13:23;;;;;;;4.07;2.05;;;10.20;93.70;;;;;;5078428;28;20032;-68
2021/05/07 11:16:00;;;;;;;4.95;2.42;;;10.30;93.60;;;;;;5071574;28;20503;-69
2021/05/07 11:18:31;;;;;;;5.47;2.13;;;10.40;93.10;;;;;;5071990;28;20021;-68
2021/05/07 11:20:57;;;;;;;3.97;2.50;;;10.50;92.90;;;;;;5057879;28;20607;-67
2021/05/07 11:23:29;;;;;;;4.75;2.50;;;10.50;92.70;;;;;;5072005;28;20127;-68
2021/05/07 11:25:56;;;;;;;4.85;2.38;;;10.50;92.40;;;;;;5071867;28;20021;-68
2021/05/07 11:28:22;;;;;;;4.18;2.33;;;10.60;92.70;;;;;;5071835;28;20036;-68
2021/05/07 11:30:48;;;;;;;4.85;2.40;;;10.70;92.60;;;;;;5071576;28;20475;-69
2021/05/07 11:33:13;;;;;;;5.30;2.50;;;10.80;92.30;;;;;;5076051;28;20047;-68
2021/05/07 11:35:39;;;;;;;5.47;2.40;;;10.90;91.80;;;;;;5050197;28;20444;-68
2021/05/07 11:38:04;;;;;;;5.03;2.38;;;11.00;91.80;;;;;;5075279;28;20032;-68
2021/05/07 11:40:38;;;;;;;4.18;2.13;;;11.00;91.20;;;;;;5068242;28;20071;-68
2021/05/07 11:43:13;;;;;;;4.72;2.20;;;11.10;91.10;;;;;;5074088;28;20032;-68
2021/05/07 11:45:40;;;;;;;7.13;2.38;;;11.20;90.70;;;;;;5067522;28;20800;-68
2021/05/07 11:48:07;;;;;;;6.75;2.47;;;11.20;90.40;;;;;;5075809;28;20039;-68
2021/05/07 11:50:32;;;;;;;3.90;2.30;;;11.30;90.20;;;;;;5058799;28;20029;-67
2021/05/07 11:52:58;;;;;;;3.75;2.00;;;11.30;89.40;;;;;;5053079;28;20036;-68
2021/05/07 11:55:26;;;;;;;5.38;2.72;;;11.40;89.00;;;;;;5067496;28;20493;-68
2021/05/07 11:58:03;;;;;;;5.47;2.38;;;11.50;89.80;;;;;;5055323;28;20115;-68
2021/05/07 12:00:30;;;;;;;4.30;2.30;;;11.60;85.00;;;;;;5070389;28;20044;-68
2021/05/07 12:03:00;;;;;;;5.43;2.30;;;11.70;87.20;;;;;;5068563;28;20040;-68
2021/05/07 12:05:33;;;;;;;5.63;2.08;;;11.70;87.00;;;;;;5069583;28;20029;-67
2021/05/07 12:08:02;;;;;;;6.15;2.92;;;11.70;85.20;;;;;;5087068;28;20028;-68
2021/05/07 12:10:29;;;;;;;6.63;3.13;;;11.70;86.60;;;;;;5065824;28;20032;-68
2021/05/07 12:12:57;;;;;;;3.83;2.33;;;11.80;86.40;;;;;;5051547;28;20413;-68
2021/05/07 12:15:26;;;;;;;6.60;2.72;;;11.90;85.40;;;;;;5056666;28;20017;-70
2021/05/07 12:17:52;;;;;;;3.85;2.10;;;12.00;85.00;;;;;;5057998;28;20060;-67
2021/05/07 12:20:21;;;;;;;3.50;2.30;;;12.10;85.10;;;;;;5074650;28;20051;-69
2021/05/07 12:22:52;;;;;;;6.78;2.78;;;12.30;85.00;;;;;;5088173;28;20055;-68
2021/05/07 12:25:20;;;;;;;3.50;2.40;;;12.30;83.30;;;;;;5075542;28;20028;-68
2021/05/07 12:27:47;;;;;;;5.15;2.38;;;12.10;82.10;;;;;;5070225;28;20032;-69
2021/05/07 12:30:20;;;;;;;4.43;2.00;;;11.90;83.20;;;;;;5068643;28;20035;-66
2021/05/07 12:33:11;;;;;;;4.88;2.40;;;11.70;84.90;;;;;;5069482;28;20039;-66
2021/05/07 12:35:51;;;;;;;4.35;2.03;;;11.60;86.30;;;;;;5077096;28;20032;-66
2021/05/07 12:38:27;;;;;;;1.30;1.20;;;11.40;87.00;;;;;;5063341;28;20056;-65
2021/05/07 12:40:58;;;;;;;2.60;1.70;;;11.30;88.00;;;;;;5069185;28;20025;-66
2021/05/07 12:43:25;;;;;;;2.25;1.45;;;11.30;89.40;;;;;;5066427;28;20496;-68
2021/05/07 12:45:51;;;;;;;3.00;1.70;;;11.30;90.00;;;;;;5067019;28;20025;-68
2021/05/07 12:48:17;;;;;;;3.63;1.52;;;11.30;90.40;;;;;;5075900;28;20024;-69
2021/05/07 12:50:44;;;;;;;2.55;1.50;;;11.50;90.50;;;;;;5070762;28;20033;-69
2021/05/07 12:53:20;;;;;;;2.03;1.40;;;11.50;90.50;;;;;;5070650;28;20090;-69
2021/05/07 12:55:47;;;;;;;4.20;1.50;;;11.60;91.00;;;;;;5059261;28;20048;-70